Time;durP1;ratioP1;P1;durP2;ratioP2;P2;SDS_P1;SDS_P2;PMS_P1;PMS_P2;Temp;Humidity;BMP_temperature;BMP_pressure;BME280_temperature;BME280_humidity;BME280_pressure;Samples;Min_cycle;Max_cycle;Signal;HPM_P1;HPM_P2
2023/05/16 00:01:20;;;;;;;7.13;5.13;;;;;;;;;;10019094;28;20553;-64
2023/05/16 00:06:15;;;;;;;8.70;5.70;;;;;;;;;;10035909;28;20053;-64
2023/05/16 00:11:09;;;;;;;6.18;5.68;;;;;;;;;;10033766;28;20054;-65
2023/05/16 00:16:03;;;;;;;6.03;5.00;;;;;;;;;;10033424;28;20057;-64
2023/05/16 00:20:57;;;;;;;4.97;4.47;;;;;;;;;;10032611;28;20129;-64
2023/05/16 00:25:51;;;;;;;4.93;4.53;;;;;;;;;;10036040;28;20057;-64
2023/05/16 00:30:47;;;;;;;8.68;4.30;;;;;;;;;;10034506;28;20045;-64
2023/05/16 00:35:40;;;;;;;4.88;4.30;;;;;;;;;;10035989;28;20053;-65
2023/05/16 00:40:35;;;;;;;5.93;3.92;;;;;;;;;;10049569;28;20054;-65
2023/05/16 00:45:29;;;;;;;5.13;4.10;;;;;;;;;;10046971;28;20065;-65
2023/05/16 00:50:23;;;;;;;4.65;4.10;;;;;;;;;;10038602;28;20417;-65
2023/05/16 00:55:19;;;;;;;6.13;4.78;;;;;;;;;;10034817;28;20149;-65
2023/05/16 01:00:14;;;;;;;5.88;5.38;;;;;;;;;;10033756;28;20478;-65
2023/05/16 01:05:08;;;;;;;6.22;5.18;;;;;;;;;;10030963;28;20433;-65
2023/05/16 01:10:03;;;;;;;6.47;5.88;;;;;;;;;;10031142;28;20497;-64
2023/05/16 01:15:08;;;;;;;6.72;6.13;;;;;;;;;;10037728;28;20049;-65
2023/05/16 01:20:21;;;;;;;7.10;5.70;;;;;;;;;;10028693;28;20045;-64
2023/05/16 01:25:39;;;;;;;8.23;6.53;;;;;;;;;;10031550;28;20091;-65
2023/05/16 01:30:34;;;;;;;7.85;7.15;;;;;;;;;;10035929;28;20073;-65
2023/05/16 01:35:28;;;;;;;8.48;7.45;;;;;;;;;;10023468;28;20501;-65
2023/05/16 01:40:24;;;;;;;8.18;7.32;;;;;;;;;;10038675;28;20046;-65
2023/05/16 01:45:20;;;;;;;8.00;7.32;;;;;;;;;;10021319;28;20054;-65
2023/05/16 01:50:18;;;;;;;8.02;7.30;;;;;;;;;;10028443;28;20057;-65
2023/05/16 01:55:16;;;;;;;8.10;7.40;;;;;;;;;;10036375;28;20062;-65
2023/05/16 02:00:15;;;;;;;7.97;7.28;;;;;;;;;;10034815;28;20088;-64
2023/05/16 02:05:09;;;;;;;7.72;7.05;;;;;;;;;;10034735;28;20061;-65
2023/05/16 02:10:03;;;;;;;10.10;8.23;;;;;;;;;;10035590;28;20140;-65
2023/05/16 02:15:00;;;;;;;9.10;8.23;;;;;;;;;;10046161;28;20050;-65
2023/05/16 02:19:54;;;;;;;9.32;8.43;;;;;;;;;;10038450;28;20110;-65
2023/05/16 02:24:48;;;;;;;9.45;8.50;;;;;;;;;;10032815;28;20053;-65
2023/05/16 02:29:43;;;;;;;12.55;11.02;;;;;;;;;;10049668;28;20042;-65
2023/05/16 02:34:36;;;;;;;9.35;8.55;;;;;;;;;;10032008;28;20118;-65
2023/05/16 02:39:28;;;;;;;9.52;7.95;;;;;;;;;;10046417;28;20131;-65
2023/05/16 02:44:21;;;;;;;9.10;8.30;;;;;;;;;;10015499;28;20095;-66
2023/05/16 02:49:15;;;;;;;9.05;8.18;;;;;;;;;;10025502;28;20097;-65
2023/05/16 02:54:08;;;;;;;10.02;9.13;;;;;;;;;;10044328;28;20108;-65
2023/05/16 02:59:03;;;;;;;9.48;7.78;;;;;;;;;;10026632;28;20501;-65
2023/05/16 03:03:56;;;;;;;9.27;7.55;;;;;;;;;;10038046;28;20050;-65
2023/05/16 03:08:49;;;;;;;8.52;7.70;;;;;;;;;;10026443;28;20049;-65
2023/05/16 03:13:42;;;;;;;9.95;8.60;;;;;;;;;;10041098;28;20068;-65
2023/05/16 03:18:35;;;;;;;7.88;6.75;;;;;;;;;;10011820;28;20391;-64
2023/05/16 03:23:29;;;;;;;5.95;5.35;;;;;;;;;;10033116;28;20057;-65
2023/05/16 03:28:23;;;;;;;6.75;3.97;;;;;;;;;;10027268;28;20050;-65
2023/05/16 03:33:19;;;;;;;4.53;3.33;;;;;;;;;;10022095;28;20050;-65
2023/05/16 03:38:13;;;;;;;5.90;2.35;;;;;;;;;;10029040;28;20157;-65
2023/05/16 03:43:08;;;;;;;3.03;2.13;;;;;;;;;;10018815;28;20556;-65
2023/05/16 03:48:01;;;;;;;3.22;1.83;;;;;;;;;;10039874;28;20104;-66
2023/05/16 03:52:56;;;;;;;1.73;1.30;;;;;;;;;;10035558;28;20057;-65
2023/05/16 03:57:51;;;;;;;4.25;1.92;;;;;;;;;;10034995;28;20525;-65
2023/05/16 04:02:45;;;;;;;5.32;1.35;;;;;;;;;;10041452;28;20042;-65
2023/05/16 04:07:39;;;;;;;3.08;1.25;;;;;;;;;;10032295;28;20532;-64
2023/05/16 04:12:32;;;;;;;5.88;1.17;;;;;;;;;;10032305;28;20046;-64
2023/05/16 04:17:26;;;;;;;4.50;1.10;;;;;;;;;;10035374;28;20061;-65
2023/05/16 04:22:21;;;;;;;2.92;1.42;;;;;;;;;;10036739;28;20048;-65
2023/05/16 04:27:14;;;;;;;3.10;1.77;;;;;;;;;;10041790;28;20100;-65
2023/05/16 04:32:09;;;;;;;6.70;2.38;;;;;;;;;;10030384;28;20120;-65
2023/05/16 04:37:07;;;;;;;8.35;1.60;;;;;;;;;;10039367;28;20456;-64
2023/05/16 04:42:01;;;;;;;5.65;2.05;;;;;;;;;;10020457;28;20065;-65
2023/05/16 04:46:55;;;;;;;3.30;1.83;;;;;;;;;;10054103;28;20049;-64
2023/05/16 04:51:49;;;;;;;2.42;1.63;;;;;;;;;;10041184;28;20136;-64
2023/05/16 04:56:43;;;;;;;5.80;3.45;;;;;;;;;;10033067;28;20117;-64
2023/05/16 05:01:38;;;;;;;3.85;1.48;;;;;;;;;;10037315;28;20054;-64
2023/05/16 05:06:31;;;;;;;3.08;1.83;;;;;;;;;;10031527;28;20053;-66
2023/05/16 05:11:26;;;;;;;3.03;1.88;;;;;;;;;;10013474;28;20077;-68
2023/05/16 05:16:19;;;;;;;4.25;1.70;;;;;;;;;;10032299;28;20052;-65
2023/05/16 05:21:12;;;;;;;1.92;1.63;;;;;;;;;;10025597;28;20049;-65
2023/05/16 05:26:05;;;;;;;2.58;1.90;;;;;;;;;;10043379;28;20496;-64
2023/05/16 05:30:58;;;;;;;18.77;2.42;;;;;;;;;;10035337;28;20050;-64
2023/05/16 05:35:52;;;;;;;7.03;2.90;;;;;;;;;;10030042;28;20421;-64
2023/05/16 05:40:46;;;;;;;4.07;2.03;;;;;;;;;;10033316;28;20058;-64
2023/05/16 05:45:40;;;;;;;2.75;1.95;;;;;;;;;;10032246;28;20420;-64
2023/05/16 05:50:35;;;;;;;5.20;2.72;;;;;;;;;;10022928;28;20571;-64
2023/05/16 05:55:30;;;;;;;7.40;3.40;;;;;;;;;;10040916;28;20501;-63
2023/05/16 06:00:23;;;;;;;5.07;2.50;;;;;;;;;;10034011;28;20058;-62
2023/05/16 06:05:19;;;;;;;7.38;2.92;;;;;;;;;;10049255;28;20041;-62
2023/05/16 06:10:13;;;;;;;5.15;3.15;;;;;;;;;;10037922;28;20045;-62
2023/05/16 06:15:09;;;;;;;6.03;2.55;;;;;;;;;;10040029;28;20104;-62
2023/05/16 06:20:03;;;;;;;3.83;2.40;;;;;;;;;;10037432;28;20480;-62
2023/05/16 06:24:57;;;;;;;18.00;3.03;;;;;;;;;;10049791;28;20050;-62
2023/05/16 06:29:50;;;;;;;2.42;1.77;;;;;;;;;;10032601;28;20488;-62
2023/05/16 06:34:45;;;;;;;3.15;2.28;;;;;;;;;;10025624;28;20153;-67
2023/05/16 06:39:38;;;;;;;8.98;3.40;;;;;;;;;;10024908;28;20046;-63
2023/05/16 06:44:32;;;;;;;2.58;1.92;;;;;;;;;;10022934;28;20076;-63
2023/05/16 06:49:25;;;;;;;3.67;1.80;;;;;;;;;;10009624;28;20050;-64
2023/05/16 06:54:18;;;;;;;2.03;1.80;;;;;;;;;;10020443;28;20069;-65
2023/05/16 06:59:13;;;;;;;1.70;1.60;;;;;;;;;;10020572;28;21456;-65
2023/05/16 07:04:07;;;;;;;5.10;2.28;;;;;;;;;;10019472;28;20057;-66
2023/05/16 07:09:01;;;;;;;2.47;2.00;;;;;;;;;;10015993;28;20049;-66
2023/05/16 07:13:54;;;;;;;4.32;2.42;;;;;;;;;;10026051;28;20060;-66
2023/05/16 07:18:46;;;;;;;2.28;2.08;;;;;;;;;;10031912;28;20119;-66
2023/05/16 07:23:41;;;;;;;1.92;1.63;;;;;;;;;;10036821;28;20064;-67
2023/05/16 07:28:34;;;;;;;2.10;1.80;;;;;;;;;;10036228;28;20064;-66
2023/05/16 07:33:27;;;;;;;2.13;1.90;;;;;;;;;;10023882;28;20074;-66
2023/05/16 07:38:21;;;;;;;2.75;1.95;;;;;;;;;;10025506;28;20128;-66
2023/05/16 07:43:14;;;;;;;9.25;2.50;;;;;;;;;;10021616;28;20050;-64
2023/05/16 07:48:08;;;;;;;4.30;2.40;;;;;;;;;;10027222;28;20482;-65
2023/05/16 07:53:01;;;;;;;6.68;2.35;;;;;;;;;;10023430;28;20449;-65
2023/05/16 07:57:57;;;;;;;2.25;2.05;;;;;;;;;;10030488;28;20047;-65
2023/05/16 08:02:50;;;;;;;18.67;4.28;;;;;;;;;;10044529;28;20057;-65
2023/05/16 08:07:44;;;;;;;2.45;1.90;;;;;;;;;;10022303;28;20101;-68
2023/05/16 08:12:38;;;;;;;3.20;2.30;;;;;;;;;;10026360;28;20050;-66
2023/05/16 08:17:31;;;;;;;4.03;1.92;;;;;;;;;;10036060;28;20141;-65
2023/05/16 08:22:25;;;;;;;2.15;1.88;;;;;;;;;;10030022;28;20054;-66
2023/05/16 08:27:20;;;;;;;2.40;1.63;;;;;;;;;;10032875;28;20069;-67
2023/05/16 08:32:13;;;;;;;2.58;2.20;;;;;;;;;;10029883;28;20401;-67
2023/05/16 08:37:07;;;;;;;3.60;2.22;;;;;;;;;;10030155;28;20054;-67
2023/05/16 08:42:00;;;;;;;2.03;1.92;;;;;;;;;;10030403;28;20508;-67
2023/05/16 08:46:55;;;;;;;2.70;2.20;;;;;;;;;;10026471;28;20433;-67
2023/05/16 08:51:51;;;;;;;4.68;2.65;;;;;;;;;;10024424;28;20085;-66
2023/05/16 08:56:44;;;;;;;2.35;2.15;;;;;;;;;;10038242;28;20049;-65
2023/05/16 09:01:37;;;;;;;3.67;2.33;;;;;;;;;;10034984;28;20091;-67
2023/05/16 09:06:31;;;;;;;4.68;2.63;;;;;;;;;;10034794;28;20049;-67
2023/05/16 09:11:25;;;;;;;3.20;2.13;;;;;;;;;;10024335;28;20057;-66
2023/05/16 09:16:20;;;;;;;3.92;2.38;;;;;;;;;;10025261;28;20062;-65
2023/05/16 09:21:14;;;;;;;3.08;2.78;;;;;;;;;;10020159;28;20050;-66
2023/05/16 09:26:08;;;;;;;4.47;2.05;;;;;;;;;;10026390;28;20077;-66
2023/05/16 09:31:01;;;;;;;3.33;2.60;;;;;;;;;;10027672;28;20045;-66
2023/05/16 09:35:56;;;;;;;3.05;1.70;;;;;;;;;;10040597;28;20045;-66
2023/05/16 09:40:52;;;;;;;3.78;2.05;;;;;;;;;;10048172;28;20088;-66
2023/05/16 09:45:48;;;;;;;2.38;2.20;;;;;;;;;;10048274;28;20408;-67
2023/05/16 09:50:51;;;;;;;2.95;2.50;;;;;;;;;;10036879;28;20056;-68
2023/05/16 09:55:47;;;;;;;2.58;2.08;;;;;;;;;;10026071;28;20140;-66
2023/05/16 10:00:40;;;;;;;3.25;1.95;;;;;;;;;;10032544;28;20141;-66
2023/05/16 10:05:34;;;;;;;2.83;2.20;;;;;;;;;;10033411;28;20037;-67
2023/05/16 10:10:29;;;;;;;2.78;1.90;;;;;;;;;;10038108;28;20050;-66
2023/05/16 10:15:23;;;;;;;2.75;2.38;;;;;;;;;;10035804;28;20046;-66
2023/05/16 10:20:17;;;;;;;2.53;2.33;;;;;;;;;;10031789;28;20057;-66
2023/05/16 10:25:17;;;;;;;2.42;2.22;;;;;;;;;;10049714;28;20048;-66
2023/05/16 10:30:12;;;;;;;2.20;2.00;;;;;;;;;;10032361;28;20077;-66
2023/05/16 10:35:06;;;;;;;3.45;2.75;;;;;;;;;;10030006;28;20053;-67
2023/05/16 10:40:01;;;;;;;2.28;2.08;;;;;;;;;;10043064;28;20045;-67
2023/05/16 10:44:55;;;;;;;5.13;3.00;;;;;;;;;;10017986;28;20049;-67
2023/05/16 10:49:58;;;;;;;3.70;3.05;;;;;;;;;;10032898;28;20536;-66
2023/05/16 10:54:51;;;;;;;3.03;2.60;;;;;;;;;;10039040;28;20064;-67
2023/05/16 10:59:47;;;;;;;3.47;2.97;;;;;;;;;;10029513;28;20405;-66
2023/05/16 11:04:53;;;;;;;3.92;2.65;;;;;;;;;;10049992;28;20049;-66
2023/05/16 11:10:09;;;;;;;4.07;2.75;;;;;;;;;;10032470;28;20045;-66
2023/05/16 11:15:18;;;;;;;4.03;3.03;;;;;;;;;;10038973;28;20076;-66
2023/05/16 11:20:31;;;;;;;5.00;3.30;;;;;;;;;;10033267;28;20056;-66
2023/05/16 11:25:39;;;;;;;3.67;3.10;;;;;;;;;;10028510;28;20120;-67
2023/05/16 11:30:51;;;;;;;4.28;2.80;;;;;;;;;;10029989;28;20054;-66
2023/05/16 11:36:06;;;;;;;4.50;3.33;;;;;;;;;;10035755;28;20073;-66
2023/05/16 11:41:08;;;;;;;4.38;3.63;;;;;;;;;;10035243;28;20459;-67
2023/05/16 11:46:03;;;;;;;5.50;2.95;;;;;;;;;;10040679;28;20103;-67
2023/05/16 11:50:58;;;;;;;5.22;3.88;;;;;;;;;;10036123;28;20523;-68
2023/05/16 11:55:52;;;;;;;5.22;3.38;;;;;;;;;;10028146;28;20059;-67
2023/05/16 12:00:49;;;;;;;5.03;3.83;;;;;;;;;;10026425;28;20501;-66
2023/05/16 12:05:53;;;;;;;4.32;3.85;;;;;;;;;;10042231;28;20064;-68
2023/05/16 12:10:49;;;;;;;5.43;4.57;;;;;;;;;;10032105;28;20050;-67
2023/05/16 12:15:42;;;;;;;5.07;3.88;;;;;;;;;;10032403;28;20062;-68
2023/05/16 12:20:36;;;;;;;5.68;4.30;;;;;;;;;;10032381;28;20085;-67
2023/05/16 12:25:31;;;;;;;4.35;3.95;;;;;;;;;;10055642;28;20405;-67
2023/05/16 12:30:27;;;;;;;4.75;4.10;;;;;;;;;;10042421;28;20122;-66
2023/05/16 12:35:21;;;;;;;5.28;3.97;;;;;;;;;;10039425;28;20053;-66
2023/05/16 12:40:16;;;;;;;4.50;3.50;;;;;;;;;;10035861;28;20402;-67
2023/05/16 12:45:15;;;;;;;6.45;4.57;;;;;;;;;;10025608;28;20058;-65
2023/05/16 12:50:13;;;;;;;6.07;4.45;;;;;;;;;;10051306;28;20053;-66
2023/05/16 12:55:08;;;;;;;7.10;5.05;;;;;;;;;;10039650;28;20058;-66
2023/05/16 13:00:03;;;;;;;4.70;4.20;;;;;;;;;;10056897;28;20404;-66
2023/05/16 13:04:57;;;;;;;5.20;4.70;;;;;;;;;;10043232;28;20042;-67
2023/05/16 13:09:50;;;;;;;6.70;5.45;;;;;;;;;;10037548;28;20128;-71
2023/05/16 13:14:44;;;;;;;6.22;4.88;;;;;;;;;;10039890;28;20054;-68
2023/05/16 13:19:38;;;;;;;6.10;5.35;;;;;;;;;;10039336;28;20047;-68
2023/05/16 13:24:31;;;;;;;5.63;5.00;;;;;;;;;;10051626;28;20049;-69
2023/05/16 13:29:25;;;;;;;4.95;4.45;;;;;;;;;;10031515;28;20485;-68
2023/05/16 13:34:18;;;;;;;5.32;4.82;;;;;;;;;;10037936;28;20049;-68
2023/05/16 13:39:12;;;;;;;9.25;6.15;;;;;;;;;;10032525;28;20061;-68
2023/05/16 13:44:07;;;;;;;8.10;5.43;;;;;;;;;;10034051;28;20551;-69
2023/05/16 13:49:01;;;;;;;5.32;4.75;;;;;;;;;;10018109;28;20125;-68
2023/05/16 13:53:55;;;;;;;7.18;6.47;;;;;;;;;;10032464;28;20529;-69
2023/05/16 13:58:49;;;;;;;6.57;5.68;;;;;;;;;;10031373;28;20394;-70
2023/05/16 14:03:56;;;;;;;5.68;5.05;;;;;;;;;;10023569;28;20133;-70
2023/05/16 14:08:50;;;;;;;9.38;5.28;;;;;;;;;;10032834;28;20074;-68
2023/05/16 14:13:45;;;;;;;9.30;5.38;;;;;;;;;;10031766;28;20050;-69
2023/05/16 14:18:38;;;;;;;6.47;4.70;;;;;;;;;;10032099;28;20065;-68
2023/05/16 14:23:32;;;;;;;7.80;5.80;;;;;;;;;;10033921;28;20416;-69
2023/05/16 14:28:26;;;;;;;9.55;5.80;;;;;;;;;;10044998;28;20041;-68
2023/05/16 14:33:20;;;;;;;7.80;6.22;;;;;;;;;;10062191;28;20050;-68
2023/05/16 14:38:13;;;;;;;7.13;6.20;;;;;;;;;;10060341;28;20037;-69
2023/05/16 14:43:07;;;;;;;9.70;5.75;;;;;;;;;;10056737;28;20137;-68
2023/05/16 14:48:01;;;;;;;6.93;6.22;;;;;;;;;;10037689;28;20116;-68
2023/05/16 14:52:54;;;;;;;8.75;7.43;;;;;;;;;;10027364;28;20072;-69
2023/05/16 14:57:48;;;;;;;7.43;6.25;;;;;;;;;;10026807;28;20057;-68
2023/05/16 15:02:51;;;;;;;8.18;6.35;;;;;;;;;;10031675;28;20085;-69
2023/05/16 15:07:44;;;;;;;8.98;7.80;;;;;;;;;;10041808;28;20564;-68
2023/05/16 15:12:42;;;;;;;11.07;6.45;;;;;;;;;;10033958;28;20133;-67
2023/05/16 15:17:35;;;;;;;8.77;7.03;;;;;;;;;;10030079;28;20460;-68
2023/05/16 15:22:29;;;;;;;9.63;7.93;;;;;;;;;;10036769;28;20119;-67
2023/05/16 15:27:23;;;;;;;7.75;6.25;;;;;;;;;;10048843;28;20104;-67
2023/05/16 15:32:22;;;;;;;14.55;6.88;;;;;;;;;;10030383;28;20042;-67
2023/05/16 15:37:24;;;;;;;9.95;7.15;;;;;;;;;;10027657;28;20073;-68
2023/05/16 15:42:26;;;;;;;8.45;7.35;;;;;;;;;;10036550;28;20689;-68
2023/05/16 15:47:29;;;;;;;7.38;6.05;;;;;;;;;;10054544;28;20054;-68
2023/05/16 15:52:34;;;;;;;7.05;5.55;;;;;;;;;;10036120;28;20065;-69
2023/05/16 15:57:34;;;;;;;7.88;6.53;;;;;;;;;;10036830;28;20081;-68
2023/05/16 16:02:30;;;;;;;7.18;6.47;;;;;;;;;;10038636;28;20049;-67
2023/05/16 16:07:25;;;;;;;9.88;6.68;;;;;;;;;;10032437;28;20050;-69
2023/05/16 16:12:23;;;;;;;6.63;5.65;;;;;;;;;;10029966;28;20517;-68
2023/05/16 16:17:20;;;;;;;8.05;5.22;;;;;;;;;;10047325;28;20041;-68
2023/05/16 16:22:24;;;;;;;5.88;4.40;;;;;;;;;;10059683;28;20047;-68
2023/05/16 16:27:22;;;;;;;8.20;4.70;;;;;;;;;;10023509;28;20417;-66
2023/05/16 16:32:20;;;;;;;5.17;4.03;;;;;;;;;;10034793;28;20052;-66
2023/05/16 16:37:18;;;;;;;7.57;5.03;;;;;;;;;;10026904;28;20440;-66
2023/05/16 16:42:12;;;;;;;7.10;3.92;;;;;;;;;;10031943;28;20469;-67
2023/05/16 16:47:07;;;;;;;8.93;5.15;;;;;;;;;;10023518;28;20050;-67
2023/05/16 16:52:03;;;;;;;8.55;4.45;;;;;;;;;;10028243;28;20058;-66
2023/05/16 16:56:58;;;;;;;4.15;2.88;;;;;;;;;;10028955;28;20079;-67
2023/05/16 17:01:52;;;;;;;5.57;4.03;;;;;;;;;;10031686;28;20045;-66
2023/05/16 17:06:46;;;;;;;3.33;2.25;;;;;;;;;;10032784;28;20057;-67
2023/05/16 17:11:41;;;;;;;5.15;2.05;;;;;;;;;;10031022;28;20089;-68
2023/05/16 17:16:36;;;;;;;3.50;2.47;;;;;;;;;;10034100;28;20121;-66
2023/05/16 17:21:33;;;;;;;6.63;1.98;;;;;;;;;;10036965;28;20068;-66
2023/05/16 17:26:27;;;;;;;1.40;1.30;;;;;;;;;;10041330;28;20057;-66
2023/05/16 17:31:21;;;;;;;4.78;1.52;;;;;;;;;;10040077;28;20517;-67
2023/05/16 17:36:15;;;;;;;1.67;1.15;;;;;;;;;;10047504;28;20064;-66
2023/05/16 17:41:10;;;;;;;1.65;1.42;;;;;;;;;;10035814;28;20465;-67
2023/05/16 17:46:05;;;;;;;3.17;1.50;;;;;;;;;;10034981;28;20049;-66
2023/05/16 17:51:00;;;;;;;4.35;1.70;;;;;;;;;;10042163;28;20053;-65
2023/05/16 17:55:55;;;;;;;2.05;1.60;;;;;;;;;;10036460;28;20422;-66
2023/05/16 18:00:49;;;;;;;5.03;1.63;;;;;;;;;;10041037;28;20489;-65
2023/05/16 18:05:44;;;;;;;4.32;1.60;;;;;;;;;;10027674;28;20049;-66
2023/05/16 18:10:38;;;;;;;2.58;1.80;;;;;;;;;;10037354;28;20065;-67
2023/05/16 18:15:44;;;;;;;6.25;4.15;;;;;;;;;;10037147;28;20141;-65
2023/05/16 18:20:39;;;;;;;5.13;1.95;;;;;;;;;;10043341;28;20056;-64
2023/05/16 18:25:33;;;;;;;3.40;1.88;;;;;;;;;;10027361;28;20136;-65
2023/05/16 18:30:27;;;;;;;2.35;0.98;;;;;;;;;;10035152;28;20046;-65
2023/05/16 18:35:22;;;;;;;3.35;1.10;;;;;;;;;;10029592;28;20050;-65
2023/05/16 18:40:17;;;;;;;1.40;1.30;;;;;;;;;;10029875;28;20408;-65
2023/05/16 18:45:11;;;;;;;4.95;1.90;;;;;;;;;;10010901;28;20050;-72
2023/05/16 18:50:07;;;;;;;3.30;2.58;;;;;;;;;;10020296;28;20045;-67
2023/05/16 18:55:00;;;;;;;2.78;1.70;;;;;;;;;;10019508;28;20145;-69
2023/05/16 18:59:55;;;;;;;3.03;2.00;;;;;;;;;;10023675;28;20064;-66
2023/05/16 19:04:49;;;;;;;3.25;1.92;;;;;;;;;;10017178;28;20054;-67
2023/05/16 19:09:45;;;;;;;8.10;3.08;;;;;;;;;;10016195;28;20561;-66
2023/05/16 19:14:38;;;;;;;10.30;5.05;;;;;;;;;;10017679;28;20073;-69
2023/05/16 19:19:32;;;;;;;2.22;2.03;;;;;;;;;;10029163;28;20073;-68
2023/05/16 19:24:26;;;;;;;2.30;1.75;;;;;;;;;;10006472;28;20137;-67
2023/05/16 19:29:21;;;;;;;5.03;2.20;;;;;;;;;;10007090;28;20498;-68
2023/05/16 19:34:14;;;;;;;6.80;4.10;;;;;;;;;;10010277;28;20138;-68
2023/05/16 19:39:09;;;;;;;5.93;2.47;;;;;;;;;;10017587;28;20046;-68
2023/05/16 19:44:03;;;;;;;5.43;2.13;;;;;;;;;;10017130;28;20053;-69
2023/05/16 19:48:57;;;;;;;5.18;3.80;;;;;;;;;;10018036;28;20540;-70
2023/05/16 19:53:51;;;;;;;2.80;2.25;;;;;;;;;;10011579;28;20065;-71
2023/05/16 19:58:47;;;;;;;5.43;3.25;;;;;;;;;;10013437;28;20050;-72
2023/05/16 20:03:41;;;;;;;3.00;1.88;;;;;;;;;;10015355;28;20058;-71
2023/05/16 20:08:35;;;;;;;2.92;2.10;;;;;;;;;;10014342;28;20132;-72
2023/05/16 20:13:30;;;;;;;3.63;1.88;;;;;;;;;;10011728;28;20424;-69
2023/05/16 20:18:25;;;;;;;2.55;2.00;;;;;;;;;;10017726;28;20057;-69
2023/05/16 20:23:20;;;;;;;3.28;2.58;;;;;;;;;;10016103;28;20048;-68
2023/05/16 20:28:13;;;;;;;3.20;2.75;;;;;;;;;;10026345;28;20136;-70
2023/05/16 20:33:07;;;;;;;4.60;2.72;;;;;;;;;;10026605;28;20038;-69
2023/05/16 20:38:01;;;;;;;3.40;3.10;;;;;;;;;;10024571;28;20050;-69
2023/05/16 20:42:55;;;;;;;3.92;2.42;;;;;;;;;;10017172;28;20061;-69
2023/05/16 20:47:49;;;;;;;6.03;2.85;;;;;;;;;;10022441;28;20050;-69
2023/05/16 20:52:43;;;;;;;3.25;2.63;;;;;;;;;;10017080;28;20517;-69
2023/05/16 20:57:39;;;;;;;2.28;2.08;;;;;;;;;;10032373;28;20041;-69
2023/05/16 21:02:34;;;;;;;2.58;1.80;;;;;;;;;;10014613;28;20465;-69
2023/05/16 21:07:28;;;;;;;4.55;2.50;;;;;;;;;;10014379;28;20050;-70
2023/05/16 21:12:21;;;;;;;2.85;2.40;;;;;;;;;;10013867;28;20054;-69
2023/05/16 21:17:16;;;;;;;5.13;2.00;;;;;;;;;;10014051;28;20054;-69
2023/05/16 21:22:10;;;;;;;2.97;2.05;;;;;;;;;;10010099;28;20049;-69
2023/05/16 21:27:04;;;;;;;3.92;2.42;;;;;;;;;;10015335;28;20486;-69
2023/05/16 21:31:58;;;;;;;4.25;1.90;;;;;;;;;;10017482;28;20112;-68
2023/05/16 21:36:53;;;;;;;2.95;1.80;;;;;;;;;;10034377;28;20133;-69
2023/05/16 21:41:47;;;;;;;5.05;2.25;;;;;;;;;;10017319;28;20785;-69
2023/05/16 21:46:44;;;;;;;3.65;2.00;;;;;;;;;;10024700;28;20124;-69
2023/05/16 21:51:39;;;;;;;5.80;1.67;;;;;;;;;;10022581;28;20485;-69
2023/05/16 21:56:34;;;;;;;4.22;1.75;;;;;;;;;;10022639;28;20046;-72
2023/05/16 22:01:28;;;;;;;3.92;2.47;;;;;;;;;;10021781;28;20140;-71
2023/05/16 22:06:24;;;;;;;6.82;1.77;;;;;;;;;;10023014;28;20100;-67
2023/05/16 22:11:20;;;;;;;4.50;1.65;;;;;;;;;;10018028;28;20133;-69
2023/05/16 22:16:17;;;;;;;2.03;1.35;;;;;;;;;;10021494;28;20045;-69
2023/05/16 22:21:11;;;;;;;1.30;1.10;;;;;;;;;;10020694;28;20140;-69
2023/05/16 22:26:05;;;;;;;1.33;1.17;;;;;;;;;;10022469;28;20129;-70
2023/05/16 22:30:59;;;;;;;2.08;1.13;;;;;;;;;;10039891;28;20485;-69
2023/05/16 22:35:53;;;;;;;2.28;1.30;;;;;;;;;;10041479;28;20077;-69
2023/05/16 22:40:46;;;;;;;2.88;1.13;;;;;;;;;;10041576;28;20050;-69
2023/05/16 22:45:41;;;;;;;3.22;1.00;;;;;;;;;;10041430;28;20417;-69
2023/05/16 22:50:34;;;;;;;2.42;1.50;;;;;;;;;;10040116;28;20042;-69
2023/05/16 22:55:27;;;;;;;1.10;1.05;;;;;;;;;;10041312;28;20085;-69
2023/05/16 23:00:23;;;;;;;1.27;1.17;;;;;;;;;;10032854;28;20087;-69
2023/05/16 23:05:19;;;;;;;0.98;0.93;;;;;;;;;;10030937;28;20059;-69
2023/05/16 23:10:13;;;;;;;3.53;0.93;;;;;;;;;;10033792;28;20453;-69
2023/05/16 23:15:08;;;;;;;1.20;1.10;;;;;;;;;;10026832;28;20128;-71
2023/05/16 23:20:03;;;;;;;1.45;1.10;;;;;;;;;;10031410;28;20054;-72
2023/05/16 23:24:57;;;;;;;4.88;1.20;;;;;;;;;;10024245;28;20050;-73
2023/05/16 23:29:52;;;;;;;1.17;1.00;;;;;;;;;;10035380;28;20064;-72
2023/05/16 23:34:45;;;;;;;1.92;1.23;;;;;;;;;;10027102;28;20420;-72
2023/05/16 23:39:39;;;;;;;3.70;1.45;;;;;;;;;;10031005;28;20044;-72
2023/05/16 23:44:33;;;;;;;2.08;1.05;;;;;;;;;;10026260;28;20069;-72
2023/05/16 23:49:26;;;;;;;1.70;1.25;;;;;;;;;;10030387;28;20061;-72
2023/05/16 23:54:20;;;;;;;5.30;3.13;;;;;;;;;;10033657;28;20069;-71
2023/05/16 23:59:15;;;;;;;1.75;1.20;;;;;;;;;;10029947;28;20512;-72
